sensor_id;sensor_type;location;lat;lon;timestamp;P1;durP1;ratioP1;P2;durP2;ratioP2
59504;SDS011;45321;53.200;5.814;2024-03-02T00:00:07;3.03;;;1.55;;
59504;SDS011;45321;53.200;5.814;2024-03-02T00:02:42;2.60;;;1.83;;
59504;SDS011;45321;53.200;5.814;2024-03-02T00:05:16;2.20;;;1.63;;
59504;SDS011;45321;53.200;5.814;2024-03-02T00:07:53;3.75;;;1.65;;
59504;SDS011;45321;53.200;5.814;2024-03-02T00:10:22;2.50;;;2.30;;
59504;SDS011;45321;53.200;5.814;2024-03-02T00:12:55;3.50;;;2.00;;
59504;SDS011;45321;53.200;5.814;2024-03-02T00:17:56;4.65;;;2.13;;
59504;SDS011;45321;53.200;5.814;2024-03-02T00:20:24;4.22;;;2.00;;
59504;SDS011;45321;53.200;5.814;2024-03-02T00:22:58;2.30;;;2.10;;
59504;SDS011;45321;53.200;5.814;2024-03-02T00:26:12;3.63;;;2.03;;
59504;SDS011;45321;53.200;5.814;2024-03-02T00:28:24;4.03;;;2.22;;
59504;SDS011;45321;53.200;5.814;2024-03-02T00:31:04;4.68;;;2.45;;
59504;SDS011;45321;53.200;5.814;2024-03-02T00:33:31;2.83;;;2.20;;
59504;SDS011;45321;53.200;5.814;2024-03-02T00:36:01;5.00;;;2.08;;
59504;SDS011;45321;53.200;5.814;2024-03-02T00:38:28;5.07;;;2.50;;
59504;SDS011;45321;53.200;5.814;2024-03-02T00:40:58;3.67;;;2.65;;
59504;SDS011;45321;53.200;5.814;2024-03-02T00:46:06;4.53;;;2.33;;
59504;SDS011;45321;53.200;5.814;2024-03-02T00:48:32;4.13;;;2.42;;
59504;SDS011;45321;53.200;5.814;2024-03-02T00:51:00;5.85;;;3.47;;
59504;SDS011;45321;53.200;5.814;2024-03-02T00:53:28;4.22;;;2.22;;
59504;SDS011;45321;53.200;5.814;2024-03-02T00:55:56;3.65;;;2.47;;
59504;SDS011;45321;53.200;5.814;2024-03-02T00:58:22;4.18;;;2.50;;
59504;SDS011;45321;53.200;5.814;2024-03-02T01:00:48;2.50;;;2.28;;
59504;SDS011;45321;53.200;5.814;2024-03-02T01:03:14;4.85;;;2.72;;
59504;SDS011;45321;53.200;5.814;2024-03-02T01:05:43;4.28;;;2.70;;
59504;SDS011;45321;53.200;5.814;2024-03-02T01:08:09;3.70;;;2.60;;
59504;SDS011;45321;53.200;5.814;2024-03-02T01:10:35;3.53;;;2.65;;
59504;SDS011;45321;53.200;5.814;2024-03-02T01:13:01;3.42;;;2.22;;
59504;SDS011;45321;53.200;5.814;2024-03-02T01:15:26;4.28;;;2.50;;
59504;SDS011;45321;53.200;5.814;2024-03-02T01:17:52;2.92;;;2.20;;
59504;SDS011;45321;53.200;5.814;2024-03-02T01:20:18;3.67;;;2.50;;
59504;SDS011;45321;53.200;5.814;2024-03-02T01:22:44;2.97;;;2.05;;
59504;SDS011;45321;53.200;5.814;2024-03-02T01:25:09;5.65;;;2.40;;
59504;SDS011;45321;53.200;5.814;2024-03-02T01:27:35;2.35;;;2.05;;
59504;SDS011;45321;53.200;5.814;2024-03-02T01:30:01;4.63;;;2.08;;
59504;SDS011;45321;53.200;5.814;2024-03-02T01:32:27;2.50;;;1.83;;
59504;SDS011;45321;53.200;5.814;2024-03-02T01:34:52;2.95;;;1.80;;
59504;SDS011;45321;53.200;5.814;2024-03-02T01:37:18;3.55;;;2.20;;
59504;SDS011;45321;53.200;5.814;2024-03-02T01:39:44;3.78;;;2.03;;
59504;SDS011;45321;53.200;5.814;2024-03-02T01:42:09;3.30;;;1.95;;
59504;SDS011;45321;53.200;5.814;2024-03-02T01:44:39;4.05;;;1.90;;
59504;SDS011;45321;53.200;5.814;2024-03-02T01:47:05;2.67;;;1.85;;
59504;SDS011;45321;53.200;5.814;2024-03-02T01:49:32;4.30;;;2.10;;
59504;SDS011;45321;53.200;5.814;2024-03-02T01:51:59;2.58;;;2.03;;
59504;SDS011;45321;53.200;5.814;2024-03-02T01:54:25;3.47;;;1.80;;
59504;SDS011;45321;53.200;5.814;2024-03-02T01:56:50;3.38;;;1.60;;
59504;SDS011;45321;53.200;5.814;2024-03-02T01:59:16;3.20;;;2.08;;
59504;SDS011;45321;53.200;5.814;2024-03-02T02:01:42;2.70;;;1.42;;
59504;SDS011;45321;53.200;5.814;2024-03-02T02:04:08;3.35;;;1.60;;
59504;SDS011;45321;53.200;5.814;2024-03-02T02:06:34;3.30;;;1.63;;
59504;SDS011;45321;53.200;5.814;2024-03-02T02:09:00;3.90;;;2.15;;
59504;SDS011;45321;53.200;5.814;2024-03-02T02:11:26;3.05;;;1.50;;
59504;SDS011;45321;53.200;5.814;2024-03-02T02:13:51;3.05;;;2.20;;
59504;SDS011;45321;53.200;5.814;2024-03-02T02:16:20;5.65;;;2.00;;
59504;SDS011;45321;53.200;5.814;2024-03-02T02:18:46;2.35;;;1.70;;
59504;SDS011;45321;53.200;5.814;2024-03-02T02:21:12;3.47;;;1.70;;
59504;SDS011;45321;53.200;5.814;2024-03-02T02:23:38;3.40;;;2.33;;
59504;SDS011;45321;53.200;5.814;2024-03-02T02:26:03;3.90;;;1.80;;
59504;SDS011;45321;53.200;5.814;2024-03-02T02:28:30;2.85;;;1.70;;
59504;SDS011;45321;53.200;5.814;2024-03-02T02:30:55;3.20;;;2.00;;
59504;SDS011;45321;53.200;5.814;2024-03-02T02:33:21;3.65;;;1.58;;
59504;SDS011;45321;53.200;5.814;2024-03-02T02:35:47;2.15;;;1.75;;
59504;SDS011;45321;53.200;5.814;2024-03-02T02:38:13;4.28;;;1.70;;
59504;SDS011;45321;53.200;5.814;2024-03-02T02:40:39;2.30;;;1.52;;
59504;SDS011;45321;53.200;5.814;2024-03-02T02:43:04;2.95;;;2.03;;
59504;SDS011;45321;53.200;5.814;2024-03-02T02:45:32;3.95;;;2.03;;
59504;SDS011;45321;53.200;5.814;2024-03-02T02:47:57;5.30;;;1.90;;
59504;SDS011;45321;53.200;5.814;2024-03-02T02:50:23;4.68;;;1.80;;
59504;SDS011;45321;53.200;5.814;2024-03-02T02:52:49;5.22;;;2.22;;
59504;SDS011;45321;53.200;5.814;2024-03-02T02:55:15;2.35;;;1.50;;
59504;SDS011;45321;53.200;5.814;2024-03-02T02:57:41;2.70;;;1.30;;
59504;SDS011;45321;53.200;5.814;2024-03-02T03:00:08;3.03;;;1.60;;
59504;SDS011;45321;53.200;5.814;2024-03-02T03:02:38;3.22;;;1.42;;
59504;SDS011;45321;53.200;5.814;2024-03-02T03:05:08;2.38;;;1.40;;
59504;SDS011;45321;53.200;5.814;2024-03-02T03:07:35;2.65;;;1.77;;
59504;SDS011;45321;53.200;5.814;2024-03-02T03:10:02;4.75;;;2.03;;
59504;SDS011;45321;53.200;5.814;2024-03-02T03:12:29;2.28;;;1.60;;
59504;SDS011;45321;53.200;5.814;2024-03-02T03:14:58;2.50;;;1.33;;
59504;SDS011;45321;53.200;5.814;2024-03-02T03:17:25;4.72;;;1.65;;
59504;SDS011;45321;53.200;5.814;2024-03-02T03:19:51;6.43;;;1.52;;
59504;SDS011;45321;53.200;5.814;2024-03-02T03:22:17;3.40;;;1.52;;
59504;SDS011;45321;53.200;5.814;2024-03-02T03:24:42;2.13;;;1.58;;
59504;SDS011;45321;53.200;5.814;2024-03-02T03:27:09;3.08;;;1.40;;
59504;SDS011;45321;53.200;5.814;2024-03-02T03:29:38;2.85;;;1.65;;
59504;SDS011;45321;53.200;5.814;2024-03-02T03:32:04;4.10;;;1.48;;
59504;SDS011;45321;53.200;5.814;2024-03-02T03:34:35;2.45;;;1.17;;
59504;SDS011;45321;53.200;5.814;2024-03-02T03:37:01;3.38;;;1.27;;
59504;SDS011;45321;53.200;5.814;2024-03-02T03:39:27;4.57;;;1.50;;
59504;SDS011;45321;53.200;5.814;2024-03-02T03:41:53;3.28;;;1.58;;
59504;SDS011;45321;53.200;5.814;2024-03-02T03:44:19;4.45;;;1.67;;
59504;SDS011;45321;53.200;5.814;2024-03-02T03:46:45;6.05;;;1.85;;
59504;SDS011;45321;53.200;5.814;2024-03-02T03:49:11;2.95;;;1.30;;
59504;SDS011;45321;53.200;5.814;2024-03-02T03:51:36;3.25;;;1.50;;
59504;SDS011;45321;53.200;5.814;2024-03-02T03:54:02;4.05;;;1.88;;
59504;SDS011;45321;53.200;5.814;2024-03-02T03:56:28;2.45;;;1.63;;
59504;SDS011;45321;53.200;5.814;2024-03-02T03:58:54;3.90;;;1.30;;
59504;SDS011;45321;53.200;5.814;2024-03-02T04:01:19;4.53;;;1.50;;
59504;SDS011;45321;53.200;5.814;2024-03-02T04:03:47;3.20;;;1.67;;
59504;SDS011;45321;53.200;5.814;2024-03-02T04:06:14;3.22;;;1.38;;
59504;SDS011;45321;53.200;5.814;2024-03-02T04:08:42;2.08;;;1.08;;
59504;SDS011;45321;53.200;5.814;2024-03-02T04:11:08;3.55;;;1.10;;
59504;SDS011;45321;53.200;5.814;2024-03-02T04:13:34;3.58;;;1.25;;
59504;SDS011;45321;53.200;5.814;2024-03-02T04:15:59;2.30;;;0.75;;
59504;SDS011;45321;53.200;5.814;2024-03-02T04:18:25;1.55;;;0.75;;
59504;SDS011;45321;53.200;5.814;2024-03-02T04:20:51;1.20;;;0.60;;
59504;SDS011;45321;53.200;5.814;2024-03-02T04:23:17;1.73;;;0.60;;
59504;SDS011;45321;53.200;5.814;2024-03-02T04:25:43;2.30;;;0.60;;
59504;SDS011;45321;53.200;5.814;2024-03-02T04:28:08;1.88;;;0.50;;
59504;SDS011;45321;53.200;5.814;2024-03-02T04:30:34;0.85;;;0.63;;
59504;SDS011;45321;53.200;5.814;2024-03-02T04:33:00;2.08;;;0.60;;
59504;SDS011;45321;53.200;5.814;2024-03-02T04:35:27;0.60;;;0.50;;
59504;SDS011;45321;53.200;5.814;2024-03-02T04:37:53;0.73;;;0.57;;
59504;SDS011;45321;53.200;5.814;2024-03-02T04:40:19;0.70;;;0.60;;
59504;SDS011;45321;53.200;5.814;2024-03-02T04:42:45;1.10;;;0.77;;
59504;SDS011;45321;53.200;5.814;2024-03-02T04:45:10;1.42;;;0.40;;
59504;SDS011;45321;53.200;5.814;2024-03-02T04:47:36;0.55;;;0.55;;
59504;SDS011;45321;53.200;5.814;2024-03-02T04:50:02;2.30;;;0.63;;
59504;SDS011;45321;53.200;5.814;2024-03-02T04:52:28;0.88;;;0.50;;
59504;SDS011;45321;53.200;5.814;2024-03-02T04:54:54;0.85;;;0.50;;
59504;SDS011;45321;53.200;5.814;2024-03-02T04:57:41;0.90;;;0.40;;
59504;SDS011;45321;53.200;5.814;2024-03-02T05:00:07;1.25;;;0.60;;
59504;SDS011;45321;53.200;5.814;2024-03-02T05:02:34;0.60;;;0.50;;
59504;SDS011;45321;53.200;5.814;2024-03-02T05:05:00;0.90;;;0.52;;
59504;SDS011;45321;53.200;5.814;2024-03-02T05:07:27;1.58;;;0.40;;
59504;SDS011;45321;53.200;5.814;2024-03-02T05:09:53;0.50;;;0.50;;
59504;SDS011;45321;53.200;5.814;2024-03-02T05:12:19;0.85;;;0.40;;
59504;SDS011;45321;53.200;5.814;2024-03-02T05:15:20;1.05;;;0.40;;
59504;SDS011;45321;53.200;5.814;2024-03-02T05:17:46;1.63;;;0.45;;
59504;SDS011;45321;53.200;5.814;2024-03-02T05:20:12;1.73;;;0.73;;
59504;SDS011;45321;53.200;5.814;2024-03-02T05:22:38;1.60;;;0.60;;
59504;SDS011;45321;53.200;5.814;2024-03-02T05:25:07;0.93;;;0.50;;
59504;SDS011;45321;53.200;5.814;2024-03-02T05:27:34;1.45;;;0.45;;
59504;SDS011;45321;53.200;5.814;2024-03-02T05:30:00;1.15;;;0.50;;
59504;SDS011;45321;53.200;5.814;2024-03-02T05:32:26;1.05;;;0.40;;
59504;SDS011;45321;53.200;5.814;2024-03-02T05:34:52;2.50;;;0.60;;
59504;SDS011;45321;53.200;5.814;2024-03-02T05:37:18;0.93;;;0.60;;
59504;SDS011;45321;53.200;5.814;2024-03-02T05:39:43;1.90;;;0.75;;
59504;SDS011;45321;53.200;5.814;2024-03-02T05:42:09;0.50;;;0.40;;
59504;SDS011;45321;53.200;5.814;2024-03-02T05:44:36;1.27;;;0.60;;
59504;SDS011;45321;53.200;5.814;2024-03-02T05:47:02;1.00;;;0.52;;
59504;SDS011;45321;53.200;5.814;2024-03-02T05:49:28;1.10;;;0.60;;
59504;SDS011;45321;53.200;5.814;2024-03-02T05:51:54;4.10;;;0.68;;
59504;SDS011;45321;53.200;5.814;2024-03-02T05:54:20;1.63;;;0.50;;
59504;SDS011;45321;53.200;5.814;2024-03-02T05:56:46;1.17;;;0.50;;
59504;SDS011;45321;53.200;5.814;2024-03-02T05:59:12;2.05;;;0.60;;
59504;SDS011;45321;53.200;5.814;2024-03-02T06:01:38;1.30;;;0.50;;
59504;SDS011;45321;53.200;5.814;2024-03-02T06:04:04;0.70;;;0.50;;
59504;SDS011;45321;53.200;5.814;2024-03-02T06:06:30;0.40;;;0.40;;
59504;SDS011;45321;53.200;5.814;2024-03-02T06:08:57;4.65;;;0.95;;
59504;SDS011;45321;53.200;5.814;2024-03-02T06:11:23;1.02;;;0.55;;
59504;SDS011;45321;53.200;5.814;2024-03-02T06:13:49;2.15;;;0.63;;
59504;SDS011;45321;53.200;5.814;2024-03-02T06:16:15;0.40;;;0.40;;
59504;SDS011;45321;53.200;5.814;2024-03-02T06:18:41;0.50;;;0.40;;
59504;SDS011;45321;53.200;5.814;2024-03-02T06:21:06;3.15;;;0.88;;
59504;SDS011;45321;53.200;5.814;2024-03-02T06:23:33;2.05;;;0.73;;
59504;SDS011;45321;53.200;5.814;2024-03-02T06:26:00;3.70;;;1.90;;
59504;SDS011;45321;53.200;5.814;2024-03-02T06:28:25;2.45;;;1.38;;
59504;SDS011;45321;53.200;5.814;2024-03-02T06:30:51;2.13;;;1.13;;
59504;SDS011;45321;53.200;5.814;2024-03-02T06:33:17;2.25;;;1.67;;
59504;SDS011;45321;53.200;5.814;2024-03-02T06:35:43;3.08;;;1.10;;
59504;SDS011;45321;53.200;5.814;2024-03-02T06:38:08;2.05;;;1.40;;
59504;SDS011;45321;53.200;5.814;2024-03-02T06:40:34;2.28;;;1.52;;
59504;SDS011;45321;53.200;5.814;2024-03-02T06:43:02;3.13;;;1.35;;
59504;SDS011;45321;53.200;5.814;2024-03-02T06:45:27;1.25;;;0.70;;
59504;SDS011;45321;53.200;5.814;2024-03-02T06:47:55;1.08;;;0.65;;
59504;SDS011;45321;53.200;5.814;2024-03-02T06:50:21;2.60;;;0.85;;
59504;SDS011;45321;53.200;5.814;2024-03-02T06:52:47;0.93;;;0.82;;
59504;SDS011;45321;53.200;5.814;2024-03-02T06:55:13;1.85;;;1.15;;
59504;SDS011;45321;53.200;5.814;2024-03-02T06:57:38;0.88;;;0.80;;
59504;SDS011;45321;53.200;5.814;2024-03-02T07:00:04;1.30;;;1.00;;
59504;SDS011;45321;53.200;5.814;2024-03-02T07:02:33;1.92;;;1.08;;
59504;SDS011;45321;53.200;5.814;2024-03-02T07:05:00;1.02;;;0.90;;
59504;SDS011;45321;53.200;5.814;2024-03-02T07:07:25;1.33;;;1.20;;
59504;SDS011;45321;53.200;5.814;2024-03-02T07:09:51;1.30;;;1.10;;
59504;SDS011;45321;53.200;5.814;2024-03-02T07:12:17;3.03;;;1.20;;
59504;SDS011;45321;53.200;5.814;2024-03-02T07:14:42;2.90;;;2.00;;
59504;SDS011;45321;53.200;5.814;2024-03-02T07:17:26;2.85;;;1.60;;
59504;SDS011;45321;53.200;5.814;2024-03-02T07:19:52;3.22;;;2.58;;
59504;SDS011;45321;53.200;5.814;2024-03-02T07:22:18;2.35;;;1.70;;
59504;SDS011;45321;53.200;5.814;2024-03-02T07:24:44;1.58;;;1.40;;
59504;SDS011;45321;53.200;5.814;2024-03-02T07:27:13;1.77;;;1.33;;
59504;SDS011;45321;53.200;5.814;2024-03-02T07:29:39;2.45;;;1.75;;
59504;SDS011;45321;53.200;5.814;2024-03-02T07:32:05;3.53;;;1.75;;
59504;SDS011;45321;53.200;5.814;2024-03-02T07:34:32;1.55;;;1.35;;
59504;SDS011;45321;53.200;5.814;2024-03-02T07:36:57;4.18;;;1.50;;
59504;SDS011;45321;53.200;5.814;2024-03-02T07:39:24;1.40;;;1.30;;
59504;SDS011;45321;53.200;5.814;2024-03-02T07:41:49;1.40;;;1.30;;
59504;SDS011;45321;53.200;5.814;2024-03-02T07:44:15;1.83;;;1.10;;
59504;SDS011;45321;53.200;5.814;2024-03-02T07:46:41;1.15;;;1.05;;
59504;SDS011;45321;53.200;5.814;2024-03-02T07:49:17;1.33;;;1.10;;
59504;SDS011;45321;53.200;5.814;2024-03-02T07:51:43;1.55;;;1.27;;
59504;SDS011;45321;53.200;5.814;2024-03-02T07:54:09;1.60;;;1.23;;
59504;SDS011;45321;53.200;5.814;2024-03-02T07:56:35;1.25;;;1.08;;
59504;SDS011;45321;53.200;5.814;2024-03-02T07:59:01;4.10;;;1.02;;
59504;SDS011;45321;53.200;5.814;2024-03-02T08:01:28;1.90;;;1.50;;
59504;SDS011;45321;53.200;5.814;2024-03-02T08:03:57;1.77;;;0.90;;
59504;SDS011;45321;53.200;5.814;2024-03-02T08:06:26;2.03;;;1.30;;
59504;SDS011;45321;53.200;5.814;2024-03-02T08:08:57;3.45;;;1.10;;
59504;SDS011;45321;53.200;5.814;2024-03-02T08:11:23;2.47;;;1.08;;
59504;SDS011;45321;53.200;5.814;2024-03-02T08:13:49;2.67;;;1.13;;
59504;SDS011;45321;53.200;5.814;2024-03-02T08:16:15;1.67;;;0.73;;
59504;SDS011;45321;53.200;5.814;2024-03-02T08:18:45;1.20;;;0.82;;
59504;SDS011;45321;53.200;5.814;2024-03-02T08:21:12;2.00;;;0.98;;
59504;SDS011;45321;53.200;5.814;2024-03-02T08:23:38;3.30;;;1.10;;
59504;SDS011;45321;53.200;5.814;2024-03-02T08:26:06;2.67;;;0.82;;
59504;SDS011;45321;53.200;5.814;2024-03-02T08:28:31;3.15;;;1.40;;
59504;SDS011;45321;53.200;5.814;2024-03-02T08:30:58;4.00;;;1.67;;
59504;SDS011;45321;53.200;5.814;2024-03-02T08:33:24;2.50;;;1.10;;
59504;SDS011;45321;53.200;5.814;2024-03-02T08:35:49;5.82;;;1.00;;
59504;SDS011;45321;53.200;5.814;2024-03-02T08:38:15;3.40;;;0.80;;
59504;SDS011;45321;53.200;5.814;2024-03-02T08:40:41;3.33;;;0.80;;
59504;SDS011;45321;53.200;5.814;2024-03-02T08:43:07;1.33;;;0.80;;
59504;SDS011;45321;53.200;5.814;2024-03-02T08:45:32;1.50;;;0.85;;
59504;SDS011;45321;53.200;5.814;2024-03-02T08:47:59;3.67;;;0.50;;
59504;SDS011;45321;53.200;5.814;2024-03-02T08:50:25;1.52;;;0.80;;
59504;SDS011;45321;53.200;5.814;2024-03-02T08:52:51;1.20;;;0.68;;
59504;SDS011;45321;53.200;5.814;2024-03-02T08:55:17;2.40;;;0.93;;
59504;SDS011;45321;53.200;5.814;2024-03-02T08:57:43;3.05;;;1.13;;
59504;SDS011;45321;53.200;5.814;2024-03-02T09:00:09;2.38;;;0.70;;
59504;SDS011;45321;53.200;5.814;2024-03-02T09:02:35;3.05;;;1.20;;
59504;SDS011;45321;53.200;5.814;2024-03-02T09:05:01;4.28;;;0.90;;
59504;SDS011;45321;53.200;5.814;2024-03-02T09:07:27;2.83;;;0.80;;
59504;SDS011;45321;53.200;5.814;2024-03-02T09:09:52;4.43;;;0.93;;
59504;SDS011;45321;53.200;5.814;2024-03-02T09:12:18;2.20;;;0.82;;
59504;SDS011;45321;53.200;5.814;2024-03-02T09:14:44;2.08;;;0.90;;
59504;SDS011;45321;53.200;5.814;2024-03-02T09:17:11;2.20;;;0.85;;
59504;SDS011;45321;53.200;5.814;2024-03-02T09:19:37;4.00;;;0.93;;
59504;SDS011;45321;53.200;5.814;2024-03-02T09:22:04;3.83;;;1.30;;
59504;SDS011;45321;53.200;5.814;2024-03-02T09:24:31;1.95;;;0.90;;
59504;SDS011;45321;53.200;5.814;2024-03-02T09:26:58;1.67;;;0.63;;
59504;SDS011;45321;53.200;5.814;2024-03-02T09:29:24;1.85;;;0.80;;
59504;SDS011;45321;53.200;5.814;2024-03-02T09:31:49;1.95;;;0.65;;
59504;SDS011;45321;53.200;5.814;2024-03-02T09:34:16;4.25;;;0.73;;
59504;SDS011;45321;53.200;5.814;2024-03-02T09:36:42;2.80;;;0.85;;
59504;SDS011;45321;53.200;5.814;2024-03-02T09:39:08;3.40;;;1.17;;
59504;SDS011;45321;53.200;5.814;2024-03-02T09:41:35;3.70;;;0.80;;
59504;SDS011;45321;53.200;5.814;2024-03-02T09:44:02;2.47;;;0.70;;
59504;SDS011;45321;53.200;5.814;2024-03-02T09:46:28;2.83;;;0.77;;
59504;SDS011;45321;53.200;5.814;2024-03-02T09:48:54;2.50;;;0.95;;
59504;SDS011;45321;53.200;5.814;2024-03-02T09:51:20;1.63;;;0.90;;
59504;SDS011;45321;53.200;5.814;2024-03-02T09:53:45;3.55;;;0.60;;
59504;SDS011;45321;53.200;5.814;2024-03-02T09:56:12;2.42;;;0.70;;
59504;SDS011;45321;53.200;5.814;2024-03-02T09:58:38;3.42;;;0.75;;
59504;SDS011;45321;53.200;5.814;2024-03-02T10:01:07;1.77;;;0.70;;
59504;SDS011;45321;53.200;5.814;2024-03-02T10:03:35;2.42;;;0.70;;
59504;SDS011;45321;53.200;5.814;2024-03-02T10:08:54;6.55;;;1.27;;
59504;SDS011;45321;53.200;5.814;2024-03-02T10:11:27;2.30;;;0.93;;
59504;SDS011;45321;53.200;5.814;2024-03-02T10:14:03;1.80;;;0.60;;
59504;SDS011;45321;53.200;5.814;2024-03-02T10:16:43;2.22;;;0.80;;
59504;SDS011;45321;53.200;5.814;2024-03-02T10:19:22;3.60;;;1.10;;
59504;SDS011;45321;53.200;5.814;2024-03-02T10:24:16;1.20;;;0.50;;
59504;SDS011;45321;53.200;5.814;2024-03-02T10:26:42;2.45;;;1.08;;
59504;SDS011;45321;53.200;5.814;2024-03-02T10:29:08;2.13;;;0.50;;
59504;SDS011;45321;53.200;5.814;2024-03-02T10:31:36;1.95;;;0.40;;
59504;SDS011;45321;53.200;5.814;2024-03-02T10:34:06;1.90;;;0.68;;
59504;SDS011;45321;53.200;5.814;2024-03-02T10:36:33;2.05;;;0.60;;
59504;SDS011;45321;53.200;5.814;2024-03-02T10:39:05;3.45;;;0.98;;
59504;SDS011;45321;53.200;5.814;2024-03-02T10:41:33;3.10;;;0.70;;
59504;SDS011;45321;53.200;5.814;2024-03-02T10:44:00;4.47;;;0.60;;
59504;SDS011;45321;53.200;5.814;2024-03-02T10:46:28;3.80;;;0.88;;
59504;SDS011;45321;53.200;5.814;2024-03-02T10:48:55;2.55;;;0.80;;
59504;SDS011;45321;53.200;5.814;2024-03-02T10:51:24;3.70;;;0.80;;
59504;SDS011;45321;53.200;5.814;2024-03-02T10:53:57;1.85;;;0.55;;
59504;SDS011;45321;53.200;5.814;2024-03-02T10:56:38;1.80;;;0.80;;
59504;SDS011;45321;53.200;5.814;2024-03-02T10:59:16;3.17;;;0.88;;
59504;SDS011;45321;53.200;5.814;2024-03-02T11:01:52;2.88;;;0.70;;
59504;SDS011;45321;53.200;5.814;2024-03-02T11:04:23;3.42;;;0.60;;
59504;SDS011;45321;53.200;5.814;2024-03-02T11:06:50;3.13;;;0.88;;
59504;SDS011;45321;53.200;5.814;2024-03-02T11:09:21;2.72;;;0.88;;
59504;SDS011;45321;53.200;5.814;2024-03-02T11:12:38;2.45;;;0.80;;
59504;SDS011;45321;53.200;5.814;2024-03-02T11:15:03;5.47;;;1.88;;
59504;SDS011;45321;53.200;5.814;2024-03-02T11:17:34;2.92;;;1.33;;
59504;SDS011;45321;53.200;5.814;2024-03-02T11:20:01;4.85;;;1.73;;
59504;SDS011;45321;53.200;5.814;2024-03-02T11:22:29;4.15;;;1.38;;
59504;SDS011;45321;53.200;5.814;2024-03-02T11:24:55;4.60;;;1.90;;
59504;SDS011;45321;53.200;5.814;2024-03-02T11:35:37;1.95;;;0.68;;
59504;SDS011;45321;53.200;5.814;2024-03-02T11:38:08;3.97;;;0.65;;
59504;SDS011;45321;53.200;5.814;2024-03-02T11:40:34;2.50;;;0.70;;
59504;SDS011;45321;53.200;5.814;2024-03-02T11:43:01;3.67;;;1.02;;
59504;SDS011;45321;53.200;5.814;2024-03-02T11:45:27;3.80;;;1.15;;
59504;SDS011;45321;53.200;5.814;2024-03-02T11:47:54;4.75;;;1.00;;
59504;SDS011;45321;53.200;5.814;2024-03-02T11:50:33;2.25;;;0.80;;
59504;SDS011;45321;53.200;5.814;2024-03-02T11:53:03;3.92;;;0.80;;
59504;SDS011;45321;53.200;5.814;2024-03-02T11:55:34;4.03;;;0.93;;
59504;SDS011;45321;53.200;5.814;2024-03-02T11:58:06;5.75;;;0.93;;
59504;SDS011;45321;53.200;5.814;2024-03-02T12:00:32;1.95;;;0.85;;
59504;SDS011;45321;53.200;5.814;2024-03-02T12:03:02;4.93;;;0.95;;
59504;SDS011;45321;53.200;5.814;2024-03-02T12:05:28;3.10;;;0.90;;
59504;SDS011;45321;53.200;5.814;2024-03-02T12:07:59;2.97;;;1.33;;
59504;SDS011;45321;53.200;5.814;2024-03-02T12:10:26;3.22;;;1.50;;
59504;SDS011;45321;53.200;5.814;2024-03-02T12:13:11;4.53;;;1.58;;
59504;SDS011;45321;53.200;5.814;2024-03-02T12:15:37;5.40;;;1.52;;
59504;SDS011;45321;53.200;5.814;2024-03-02T12:18:03;3.63;;;1.17;;
59504;SDS011;45321;53.200;5.814;2024-03-02T12:20:30;3.55;;;1.40;;
59504;SDS011;45321;53.200;5.814;2024-03-02T12:22:58;5.82;;;1.73;;
59504;SDS011;45321;53.200;5.814;2024-03-02T12:25:26;5.88;;;2.15;;
59504;SDS011;45321;53.200;5.814;2024-03-02T12:27:53;4.97;;;1.67;;
59504;SDS011;45321;53.200;5.814;2024-03-02T12:30:20;6.47;;;2.63;;
59504;SDS011;45321;53.200;5.814;2024-03-02T12:32:47;3.45;;;1.15;;
59504;SDS011;45321;53.200;5.814;2024-03-02T12:35:13;4.13;;;1.10;;
59504;SDS011;45321;53.200;5.814;2024-03-02T12:37:44;1.88;;;0.80;;
59504;SDS011;45321;53.200;5.814;2024-03-02T12:40:10;3.83;;;1.27;;
59504;SDS011;45321;53.200;5.814;2024-03-02T12:42:37;2.67;;;0.85;;
59504;SDS011;45321;53.200;5.814;2024-03-02T12:45:04;3.50;;;1.20;;
59504;SDS011;45321;53.200;5.814;2024-03-02T12:47:30;2.40;;;0.98;;
59504;SDS011;45321;53.200;5.814;2024-03-02T12:49:57;4.20;;;1.00;;
59504;SDS011;45321;53.200;5.814;2024-03-02T12:52:24;4.47;;;1.27;;
59504;SDS011;45321;53.200;5.814;2024-03-02T12:54:50;4.45;;;0.88;;
59504;SDS011;45321;53.200;5.814;2024-03-02T12:57:18;2.90;;;0.90;;
59504;SDS011;45321;53.200;5.814;2024-03-02T12:59:47;2.35;;;0.82;;
59504;SDS011;45321;53.200;5.814;2024-03-02T13:02:17;2.90;;;1.10;;
59504;SDS011;45321;53.200;5.814;2024-03-02T13:04:43;3.55;;;0.95;;
59504;SDS011;45321;53.200;5.814;2024-03-02T13:07:09;3.45;;;1.40;;
59504;SDS011;45321;53.200;5.814;2024-03-02T13:09:38;4.57;;;1.50;;
59504;SDS011;45321;53.200;5.814;2024-03-02T13:12:04;2.80;;;1.00;;
59504;SDS011;45321;53.200;5.814;2024-03-02T13:14:34;2.95;;;1.10;;
59504;SDS011;45321;53.200;5.814;2024-03-02T13:17:01;2.97;;;1.05;;
59504;SDS011;45321;53.200;5.814;2024-03-02T13:19:29;2.25;;;0.90;;
59504;SDS011;45321;53.200;5.814;2024-03-02T13:21:56;2.88;;;0.68;;
59504;SDS011;45321;53.200;5.814;2024-03-02T13:24:22;3.20;;;0.80;;
59504;SDS011;45321;53.200;5.814;2024-03-02T13:26:50;2.67;;;0.82;;
59504;SDS011;45321;53.200;5.814;2024-03-02T13:29:20;3.63;;;1.10;;
59504;SDS011;45321;53.200;5.814;2024-03-02T13:31:46;3.17;;;0.85;;
59504;SDS011;45321;53.200;5.814;2024-03-02T13:34:12;2.97;;;0.60;;
59504;SDS011;45321;53.200;5.814;2024-03-02T13:36:38;1.55;;;0.47;;
59504;SDS011;45321;53.200;5.814;2024-03-02T13:39:04;6.20;;;1.00;;
59504;SDS011;45321;53.200;5.814;2024-03-02T13:41:31;2.55;;;0.73;;
59504;SDS011;45321;53.200;5.814;2024-03-02T13:43:57;3.90;;;0.73;;
59504;SDS011;45321;53.200;5.814;2024-03-02T13:46:26;2.88;;;0.95;;
59504;SDS011;45321;53.200;5.814;2024-03-02T13:48:52;1.92;;;0.50;;
59504;SDS011;45321;53.200;5.814;2024-03-02T13:51:19;2.35;;;0.65;;
59504;SDS011;45321;53.200;5.814;2024-03-02T13:53:45;3.72;;;0.70;;
59504;SDS011;45321;53.200;5.814;2024-03-02T13:56:10;2.83;;;0.73;;
59504;SDS011;45321;53.200;5.814;2024-03-02T13:58:36;3.03;;;0.85;;
59504;SDS011;45321;53.200;5.814;2024-03-02T14:01:02;2.05;;;0.70;;
59504;SDS011;45321;53.200;5.814;2024-03-02T14:03:30;1.85;;;0.57;;
59504;SDS011;45321;53.200;5.814;2024-03-02T14:05:56;2.30;;;0.50;;
59504;SDS011;45321;53.200;5.814;2024-03-02T14:08:22;3.22;;;0.75;;
59504;SDS011;45321;53.200;5.814;2024-03-02T14:10:48;3.42;;;0.63;;
59504;SDS011;45321;53.200;5.814;2024-03-02T14:13:14;3.05;;;1.02;;
59504;SDS011;45321;53.200;5.814;2024-03-02T14:15:41;2.75;;;0.60;;
59504;SDS011;45321;53.200;5.814;2024-03-02T14:18:07;1.80;;;0.68;;
59504;SDS011;45321;53.200;5.814;2024-03-02T14:20:35;4.35;;;0.77;;
59504;SDS011;45321;53.200;5.814;2024-03-02T14:23:01;2.50;;;0.50;;
59504;SDS011;45321;53.200;5.814;2024-03-02T14:25:28;2.70;;;0.50;;
59504;SDS011;45321;53.200;5.814;2024-03-02T14:27:56;4.47;;;0.80;;
59504;SDS011;45321;53.200;5.814;2024-03-02T14:30:23;3.08;;;0.75;;
59504;SDS011;45321;53.200;5.814;2024-03-02T14:32:49;2.70;;;0.73;;
59504;SDS011;45321;53.200;5.814;2024-03-02T14:35:15;1.75;;;0.70;;
59504;SDS011;45321;53.200;5.814;2024-03-02T14:37:41;7.28;;;1.42;;
59504;SDS011;45321;53.200;5.814;2024-03-02T14:40:08;3.45;;;0.93;;
59504;SDS011;45321;53.200;5.814;2024-03-02T14:42:34;2.40;;;0.90;;
59504;SDS011;45321;53.200;5.814;2024-03-02T14:45:01;2.47;;;0.50;;
59504;SDS011;45321;53.200;5.814;2024-03-02T14:47:29;5.93;;;0.80;;
59504;SDS011;45321;53.200;5.814;2024-03-02T14:49:57;3.58;;;1.27;;
59504;SDS011;45321;53.200;5.814;2024-03-02T14:52:23;2.30;;;0.93;;
59504;SDS011;45321;53.200;5.814;2024-03-02T14:54:49;3.08;;;1.02;;
59504;SDS011;45321;53.200;5.814;2024-03-02T14:57:15;2.67;;;0.60;;
59504;SDS011;45321;53.200;5.814;2024-03-02T14:59:40;2.38;;;0.90;;
59504;SDS011;45321;53.200;5.814;2024-03-02T15:02:14;2.40;;;0.70;;
59504;SDS011;45321;53.200;5.814;2024-03-02T15:04:40;2.50;;;0.70;;
59504;SDS011;45321;53.200;5.814;2024-03-02T15:07:05;2.90;;;0.80;;